createdAt,value
2022-08-26T00:02:11.341Z,18.6
2022-08-26T00:12:13.181Z,18.6
2022-08-26T00:22:16.160Z,18.4
2022-08-26T00:32:17.324Z,18.4
2022-08-26T00:42:19.215Z,18.2
2022-08-26T00:52:20.913Z,18.2
2022-08-26T01:02:23.070Z,18.5
2022-08-26T01:12:24.928Z,18.5
2022-08-26T01:22:28.313Z,18.4
2022-08-26T01:52:33.535Z,17.7
2022-08-26T02:02:35.190Z,17.6
2022-08-26T02:12:37.080Z,17.4
2022-08-26T02:22:39.030Z,17.4
2022-08-26T02:42:43.603Z,17.2
2022-08-26T02:52:45.403Z,17.2
2022-08-26T03:02:48.038Z,17
2022-08-26T03:22:51.695Z,16.7
2022-08-26T03:32:53.620Z,16.5
2022-08-26T03:42:55.444Z,16.5
2022-08-26T03:52:57.197Z,16.5
2022-08-26T04:02:59.685Z,16.5
2022-08-26T04:13:01.407Z,16.4
2022-08-26T04:23:03.260Z,16.4
2022-08-26T04:33:11.658Z,16.5
2022-08-26T04:43:07.466Z,16.8
2022-08-26T04:53:09.500Z,17.2
2022-08-26T05:03:12.015Z,17.7
2022-08-26T05:13:15.429Z,18
2022-08-26T05:23:16.662Z,18.5
2022-08-26T05:33:18.888Z,18.8
2022-08-26T05:43:20.945Z,19
2022-08-26T05:53:22.704Z,19.4
2022-08-26T06:03:24.675Z,19.7
2022-08-26T06:13:26.522Z,19.9
2022-08-26T06:23:28.963Z,20
2022-08-26T06:33:31.520Z,20.2
2022-08-26T06:43:33.439Z,20.4
2022-08-26T06:53:35.831Z,20.5
2022-08-26T07:03:39.657Z,20.5
2022-08-26T07:13:39.669Z,20.7
2022-08-26T07:23:42.231Z,21.2
2022-08-26T07:43:45.611Z,21.3
2022-08-26T07:53:48.184Z,21.3
2022-08-26T08:03:50.477Z,21.6
2022-08-26T08:13:56.231Z,21.5
2022-08-26T08:23:54.725Z,21.8
2022-08-26T08:33:56.904Z,21.8
2022-08-26T08:43:59.132Z,21.9
2022-08-26T08:54:01.626Z,21.9
2022-08-26T09:04:03.760Z,22
2022-08-26T09:14:06.170Z,21.7
2022-08-26T09:24:08.044Z,21.7
2022-08-26T09:34:10.032Z,21.6
2022-08-26T09:44:14.399Z,21.8
2022-08-26T09:54:13.385Z,22.1
2022-08-26T10:04:15.358Z,22
2022-08-26T10:14:17.708Z,22.6
2022-08-26T10:24:19.403Z,23.1
2022-08-26T10:44:23.133Z,23.3
2022-08-26T10:54:25.109Z,23.2
2022-08-26T11:04:26.945Z,22.7
2022-08-26T11:14:30.267Z,23.1
2022-08-26T11:24:30.619Z,23.9
2022-08-26T11:34:32.298Z,23.8
2022-08-26T11:44:34.394Z,23.9
2022-08-26T11:54:36.786Z,23.5
2022-08-26T12:04:38.720Z,23.9
2022-08-26T12:14:41.259Z,23.9
2022-08-26T12:24:43.132Z,23.7
2022-08-26T12:34:44.801Z,23.9
2022-08-26T12:44:53.559Z,23.5
2022-08-26T12:54:52.436Z,23.8
2022-08-26T13:34:58.792Z,24.3
2022-08-26T13:45:00.858Z,24.2
2022-08-26T13:55:02.532Z,23.8
2022-08-26T14:15:06.651Z,23.5
2022-08-26T14:25:08.647Z,23.4
2022-08-26T14:45:12.581Z,23.2
2022-08-26T14:55:15.016Z,23.1
2022-08-26T15:05:17.149Z,22.9
2022-08-26T15:15:18.881Z,22.8
2022-08-26T15:25:21.119Z,22.6
2022-08-26T15:35:23.138Z,22.9
2022-08-26T15:45:25.894Z,22.3
2022-08-26T15:55:26.827Z,22
2022-08-26T16:05:28.541Z,21.9
2022-08-26T16:15:30.553Z,21.9
2022-08-26T16:25:32.819Z,21.3
2022-08-26T16:35:35.123Z,21.2
2022-08-26T17:05:41.455Z,21.1
2022-08-26T17:25:46.399Z,20.9
2022-08-26T17:55:52.907Z,20.8
2022-08-26T18:15:58.000Z,20.6
2022-08-26T18:26:00.572Z,20.6
2022-08-26T18:36:02.377Z,20.5
2022-08-26T18:56:07.020Z,20.3
2022-08-26T19:06:09.400Z,20.3
2022-08-26T19:36:15.711Z,19.9
2022-08-26T19:46:18.399Z,19.8
2022-08-26T19:56:20.314Z,19.7
2022-08-26T20:26:27.592Z,19.3
2022-08-26T20:36:29.470Z,19.3
2022-08-26T21:06:35.339Z,18.7
2022-08-26T21:16:37.207Z,18.5
2022-08-26T21:46:43.621Z,17.7
2022-08-26T21:47:05.560Z,17.7
2022-08-26T22:06:54.693Z,17.4
2022-08-26T22:16:56.347Z,17.3
2022-08-26T22:26:58.222Z,17.2
2022-08-26T22:36:59.987Z,17.1
2022-08-26T22:47:02.158Z,17
2022-08-26T22:57:04.308Z,17
2022-08-26T23:07:06.423Z,16.9
2022-08-26T23:17:08.256Z,16.9
2022-08-26T23:27:10.398Z,16.8
2022-08-26T23:37:12.124Z,16.7
2022-08-26T23:47:14.649Z,16.7
2022-08-26T23:57:16.359Z,16.7
